createdAt,value
2018-09-13T00:01:43.420Z,87.87
2018-09-13T00:04:11.964Z,87.43
2018-09-13T00:06:40.489Z,86.69
2018-09-13T00:09:09.999Z,87.31
2018-09-13T00:11:38.922Z,86.44
2018-09-13T00:14:07.527Z,88.52
2018-09-13T00:16:42.700Z,86.07
2018-09-13T00:19:18.330Z,86.02
2018-09-13T00:21:53.946Z,84.74
2018-09-13T00:24:28.531Z,85.14
2018-09-13T00:27:02.741Z,86.38
2018-09-13T00:29:36.522Z,86.90
2018-09-13T00:32:05.264Z,86.07
2018-09-13T00:34:33.790Z,86.02
2018-09-13T00:37:02.526Z,87.19
2018-09-13T00:39:31.031Z,86.46
2018-09-13T00:41:59.565Z,86.91
2018-09-13T00:44:28.066Z,89.00
2018-09-13T00:46:56.612Z,89.04
2018-09-13T00:49:25.161Z,90.97
2018-09-13T00:51:53.773Z,88.84
2018-09-13T00:54:22.778Z,89.30
2018-09-13T00:56:51.320Z,92.13
2018-09-13T00:59:19.833Z,93.63
2018-09-13T01:01:48.364Z,90.19
2018-09-13T01:04:16.923Z,90.96
2018-09-13T01:06:45.489Z,90.81
2018-09-13T01:09:13.993Z,90.77
2018-09-13T01:11:42.566Z,91.67
2018-09-13T01:14:11.076Z,91.64
2018-09-13T01:16:39.645Z,92.53
2018-09-13T01:19:08.158Z,91.89
2018-09-13T01:21:36.720Z,91.96
2018-09-13T01:24:05.273Z,90.90
2018-09-13T01:26:33.824Z,90.95
2018-09-13T01:29:02.417Z,89.78
2018-09-13T01:31:30.932Z,91.74
2018-09-13T01:33:59.476Z,90.53
2018-09-13T01:36:27.991Z,94.05
2018-09-13T01:38:56.824Z,94.00
2018-09-13T01:41:25.405Z,91.55
2018-09-13T01:43:53.991Z,95.48
2018-09-13T01:46:22.538Z,92.70
2018-09-13T01:48:51.092Z,93.07
2018-09-13T01:51:19.609Z,95.29
2018-09-13T01:53:48.159Z,96.35
2018-09-13T01:56:16.673Z,97.30
2018-09-13T01:58:45.229Z,96.59
2018-09-13T02:01:13.732Z,95.38
2018-09-13T02:03:42.297Z,95.09
2018-09-13T02:06:10.849Z,92.94
2018-09-13T02:08:39.397Z,91.83
2018-09-13T02:11:07.912Z,92.45
2018-09-13T02:13:36.461Z,92.11
2018-09-13T02:16:04.997Z,92.49
2018-09-13T02:18:33.604Z,93.38
2018-09-13T02:21:02.128Z,93.36
2018-09-13T02:23:30.682Z,93.16
2018-09-13T02:25:59.193Z,92.06
2018-09-13T02:28:27.752Z,92.83
2018-09-13T02:30:56.277Z,94.88
2018-09-13T02:33:24.875Z,93.33
2018-09-13T02:35:53.437Z,94.15
2018-09-13T02:38:21.981Z,93.77
2018-09-13T02:40:50.598Z,94.98
2018-09-13T02:43:19.140Z,94.11
2018-09-13T02:45:47.654Z,94.18
2018-09-13T02:48:16.213Z,94.39
2018-09-13T02:50:44.733Z,96.82
2018-09-13T02:53:13.285Z,96.89
2018-09-13T02:55:41.792Z,96.49
2018-09-13T02:58:10.358Z,93.49
2018-09-13T03:00:38.911Z,94.76
2018-09-13T03:03:07.460Z,96.00
2018-09-13T03:05:36.009Z,95.62
2018-09-13T03:08:04.582Z,96.02
2018-09-13T03:10:33.106Z,95.47
2018-09-13T03:13:01.661Z,94.29
2018-09-13T03:15:30.191Z,93.93
2018-09-13T03:17:58.771Z,94.92
2018-09-13T03:20:27.376Z,94.64
2018-09-13T03:22:55.954Z,93.75
2018-09-13T03:25:24.509Z,93.50
2018-09-13T03:27:53.185Z,95.43
2018-09-13T03:30:21.796Z,94.62
2018-09-13T03:32:50.444Z,94.76
2018-09-13T03:35:19.252Z,94.68
2018-09-13T03:37:47.772Z,94.29
2018-09-13T03:40:16.338Z,94.81
2018-09-13T03:42:44.852Z,96.49
2018-09-13T03:45:13.440Z,96.66
2018-09-13T03:47:42.028Z,95.32
2018-09-13T03:50:10.628Z,94.36
2018-09-13T03:52:39.144Z,96.02
2018-09-13T03:55:07.733Z,96.08
2018-09-13T03:57:36.447Z,95.00
2018-09-13T04:00:05.154Z,97.01
2018-09-13T04:02:33.676Z,97.88
2018-09-13T04:05:02.272Z,97.71
2018-09-13T04:07:30.795Z,96.27
2018-09-13T04:09:59.349Z,95.92
2018-09-13T04:12:27.875Z,98.11
2018-09-13T04:14:56.438Z,97.31
2018-09-13T04:17:24.987Z,96.76
2018-09-13T04:19:53.630Z,95.67
2018-09-13T04:22:22.165Z,95.36
2018-09-13T04:24:50.717Z,97.59
2018-09-13T04:27:19.236Z,97.39
2018-09-13T04:29:47.784Z,98.14
2018-09-13T04:32:16.293Z,97.70
2018-09-13T04:34:44.841Z,97.45
2018-09-13T04:37:13.362Z,97.87
2018-09-13T04:39:41.909Z,97.04
2018-09-13T04:42:10.432Z,96.51
2018-09-13T04:44:38.979Z,97.94
2018-09-13T04:47:07.496Z,96.99
2018-09-13T04:49:36.057Z,96.10
2018-09-13T04:52:06.045Z,95.92
2018-09-13T04:54:35.090Z,95.76
2018-09-13T04:57:03.741Z,95.41
2018-09-13T04:59:34.463Z,94.94
2018-09-13T05:02:03.117Z,96.12
2018-09-13T05:04:31.713Z,98.02
2018-09-13T05:07:00.333Z,97.75
2018-09-13T05:09:33.417Z,98.09
2018-09-13T05:12:01.940Z,98.01
2018-09-13T05:14:38.382Z,97.21
2018-09-13T05:17:07.256Z,98.45
2018-09-13T05:19:35.825Z,97.86
2018-09-13T05:22:04.350Z,96.41
2018-09-13T05:24:33.425Z,96.16
2018-09-13T05:27:03.914Z,97.42
2018-09-13T05:29:32.925Z,98.24
2018-09-13T05:32:01.485Z,98.87
2018-09-13T05:34:30.014Z,98.11
2018-09-13T05:36:58.556Z,98.02
2018-09-13T05:39:27.350Z,100.00
2018-09-13T05:41:56.622Z,99.26
2018-09-13T05:44:25.195Z,98.09
2018-09-13T05:46:53.748Z,98.27
2018-09-13T05:49:22.260Z,97.09
2018-09-13T05:51:50.821Z,96.62
2018-09-13T05:54:19.349Z,95.97
2018-09-13T05:56:47.916Z,95.74
2018-09-13T05:59:16.431Z,95.87
2018-09-13T06:01:44.993Z,95.98
2018-09-13T06:04:13.540Z,94.76
2018-09-13T06:06:42.945Z,96.48
2018-09-13T06:09:11.454Z,96.66
2018-09-13T06:11:40.008Z,97.40
2018-09-13T06:14:08.529Z,96.86
2018-09-13T06:16:37.406Z,95.56
2018-09-13T06:19:05.985Z,94.24
2018-09-13T06:21:34.534Z,93.73
2018-09-13T06:24:03.065Z,94.34
2018-09-13T06:26:31.619Z,94.17
2018-09-13T06:29:00.164Z,93.16
2018-09-13T06:31:28.786Z,92.71
2018-09-13T06:33:57.328Z,92.96
2018-09-13T06:36:25.903Z,93.21
2018-09-13T06:38:54.450Z,92.61
2018-09-13T06:41:23.014Z,92.22
2018-09-13T06:43:51.581Z,92.35
2018-09-13T06:46:20.159Z,92.57
2018-09-13T06:48:48.732Z,90.55
2018-09-13T06:51:17.288Z,90.46
2018-09-13T06:53:45.795Z,88.99
2018-09-13T06:56:14.352Z,88.64
2018-09-13T06:58:42.876Z,88.51
2018-09-13T07:01:11.497Z,87.42
2018-09-13T07:03:40.075Z,88.80
2018-09-13T07:06:08.701Z,87.55
2018-09-13T07:08:37.243Z,85.70
2018-09-13T07:11:05.926Z,85.19
2018-09-13T07:13:34.476Z,83.86
2018-09-13T07:16:03.032Z,84.28
2018-09-13T07:18:31.557Z,84.33
2018-09-13T07:21:00.126Z,83.76
2018-09-13T07:23:28.723Z,83.43
2018-09-13T07:25:57.257Z,84.10
2018-09-13T07:28:25.849Z,82.36
2018-09-13T07:30:54.418Z,83.16
2018-09-13T07:33:22.958Z,83.44
2018-09-13T07:35:51.477Z,83.46
2018-09-13T07:38:20.038Z,83.74
2018-09-13T07:40:48.573Z,83.02
2018-09-13T07:43:17.215Z,83.59
2018-09-13T07:45:45.785Z,83.56
2018-09-13T07:48:14.333Z,84.07
2018-09-13T07:50:42.845Z,83.65
2018-09-13T07:53:11.430Z,82.98
2018-09-13T07:55:40.015Z,82.91
2018-09-13T07:58:08.652Z,82.68
2018-09-13T08:00:37.220Z,82.43
2018-09-13T08:03:06.052Z,81.27
2018-09-13T08:05:34.618Z,81.36
2018-09-13T08:08:03.177Z,83.21
2018-09-13T08:10:31.701Z,83.34
2018-09-13T08:13:00.366Z,82.95
2018-09-13T08:15:28.893Z,82.75
2018-09-13T08:17:57.432Z,81.83
2018-09-13T08:20:25.957Z,81.10
2018-09-13T08:22:54.848Z,81.87
2018-09-13T08:25:23.357Z,81.33
2018-09-13T08:27:51.904Z,81.45
2018-09-13T08:30:20.441Z,80.30
2018-09-13T08:32:49.006Z,80.57
2018-09-13T08:35:17.516Z,80.89
2018-09-13T08:37:46.061Z,80.48
2018-09-13T08:40:14.592Z,79.34
2018-09-13T08:42:43.144Z,79.14
2018-09-13T08:45:11.672Z,79.38
2018-09-13T08:47:40.355Z,77.70
2018-09-13T08:50:08.841Z,76.93
2018-09-13T08:52:37.401Z,77.03
2018-09-13T08:55:09.306Z,77.23
2018-09-13T08:57:38.145Z,76.88
2018-09-13T09:00:08.881Z,76.45
2018-09-13T09:02:37.445Z,76.00
2018-09-13T09:05:06.321Z,76.04
2018-09-13T09:07:35.373Z,75.03
2018-09-13T09:10:06.924Z,75.39
2018-09-13T09:12:35.534Z,75.20
2018-09-13T09:15:04.160Z,75.53
2018-09-13T09:17:32.740Z,73.94
2018-09-13T09:20:01.286Z,74.08
2018-09-13T09:22:29.811Z,74.38
2018-09-13T09:24:58.379Z,73.61
2018-09-13T09:27:27.525Z,74.65
2018-09-13T09:29:56.211Z,73.86
2018-09-13T09:32:25.092Z,73.94
2018-09-13T09:34:53.719Z,73.56
2018-09-13T09:37:22.234Z,73.88
2018-09-13T09:39:50.829Z,73.74
2018-09-13T09:42:19.325Z,75.58
2018-09-13T09:44:47.873Z,74.76
2018-09-13T09:47:16.417Z,74.33
2018-09-13T09:49:44.972Z,73.33
2018-09-13T09:52:13.557Z,73.59
2018-09-13T09:54:42.068Z,73.87
2018-09-13T09:57:10.635Z,72.82
2018-09-13T09:59:39.152Z,72.83
2018-09-13T10:02:12.690Z,71.77
2018-09-13T10:04:41.340Z,72.26
2018-09-13T10:07:09.829Z,72.58
2018-09-13T10:09:38.467Z,73.01
2018-09-13T10:12:06.961Z,72.96
2018-09-13T10:14:35.512Z,73.48
2018-09-13T10:17:09.350Z,72.58
2018-09-13T10:19:42.901Z,74.29
2018-09-13T10:22:16.756Z,72.31
2018-09-13T10:24:50.500Z,72.86
2018-09-13T10:27:24.479Z,72.55
2018-09-13T10:29:58.236Z,71.21
2018-09-13T10:32:31.931Z,71.15
2018-09-13T10:35:05.723Z,71.89
2018-09-13T10:37:40.385Z,72.15
2018-09-13T10:40:14.389Z,70.92
2018-09-13T10:42:48.037Z,70.88
2018-09-13T10:45:21.917Z,71.23
2018-09-13T10:47:56.924Z,70.39
2018-09-13T10:50:25.042Z,70.64
2018-09-13T10:53:04.863Z,70.48
2018-09-13T10:55:33.486Z,70.64
2018-09-13T10:58:02.025Z,72.07
2018-09-13T11:00:30.690Z,71.32
2018-09-13T11:02:59.825Z,71.71
2018-09-13T11:05:28.458Z,72.30
2018-09-13T11:07:57.033Z,72.20
2018-09-13T11:10:25.807Z,71.65
2018-09-13T11:12:59.441Z,71.01
2018-09-13T11:15:35.989Z,71.62
2018-09-13T11:18:05.953Z,71.58
2018-09-13T11:20:34.765Z,72.16
2018-09-13T11:23:03.288Z,72.43
2018-09-13T11:25:31.847Z,72.89
2018-09-13T11:28:00.370Z,71.84
2018-09-13T11:30:28.977Z,71.91
2018-09-13T11:32:57.773Z,72.09
2018-09-13T11:35:36.933Z,72.17
2018-09-13T11:38:05.649Z,72.18
2018-09-13T11:40:34.759Z,71.38
2018-09-13T11:43:03.161Z,72.62
2018-09-13T11:45:31.704Z,72.43
2018-09-13T11:48:00.216Z,73.58
2018-09-13T11:50:28.911Z,73.53
2018-09-13T11:52:57.748Z,73.42
2018-09-13T11:55:26.629Z,74.15
2018-09-13T11:57:57.082Z,74.51
2018-09-13T12:00:25.834Z,73.75
2018-09-13T12:02:54.404Z,75.11
2018-09-13T12:05:22.961Z,73.34
2018-09-13T12:07:51.580Z,74.26
2018-09-13T12:10:20.098Z,76.29
2018-09-13T12:12:49.576Z,76.11
2018-09-13T12:15:18.105Z,74.96
2018-09-13T12:17:46.695Z,76.71
2018-09-13T12:20:15.192Z,77.20
2018-09-13T12:22:43.735Z,78.92
2018-09-13T12:25:13.386Z,78.80
2018-09-13T12:27:43.840Z,79.38
2018-09-13T12:30:13.240Z,80.70
2018-09-13T12:32:44.473Z,81.15
2018-09-13T12:35:16.424Z,79.95
2018-09-13T12:37:49.433Z,82.85
2018-09-13T12:40:23.842Z,83.09
2018-09-13T12:42:56.208Z,83.63
2018-09-13T12:45:29.413Z,85.20
2018-09-13T12:48:03.743Z,85.05
2018-09-13T12:50:34.296Z,84.79
2018-09-13T12:53:06.692Z,85.78
2018-09-13T12:55:43.811Z,85.65
2018-09-13T12:58:14.069Z,85.85
2018-09-13T13:00:48.700Z,86.20
2018-09-13T13:03:22.233Z,85.43
2018-09-13T13:05:52.784Z,85.99
2018-09-13T13:08:22.942Z,85.70
2018-09-13T13:10:53.334Z,86.49
2018-09-13T13:13:30.282Z,85.37
2018-09-13T13:16:05.474Z,87.76
2018-09-13T13:18:37.817Z,89.37
2018-09-13T13:21:11.142Z,89.16
2018-09-13T13:23:44.099Z,88.67
2018-09-13T13:26:14.186Z,88.60
2018-09-13T13:28:42.774Z,88.15
2018-09-13T13:31:16.093Z,91.31
2018-09-13T13:33:51.318Z,91.26
2018-09-13T13:36:22.915Z,92.47
2018-09-13T13:38:55.208Z,91.39
2018-09-13T13:41:30.277Z,91.51
2018-09-13T13:44:02.156Z,89.83
2018-09-13T13:46:35.353Z,92.79
2018-09-13T13:49:05.049Z,93.51
2018-09-13T13:51:40.077Z,93.67
2018-09-13T13:54:14.337Z,92.47
2018-09-13T13:56:46.218Z,91.09
2018-09-13T13:59:16.532Z,92.78
2018-09-13T14:01:47.497Z,93.76
2018-09-13T14:04:20.448Z,94.17
2018-09-13T14:06:53.971Z,93.59
2018-09-13T14:09:27.792Z,94.16
2018-09-13T14:11:57.928Z,95.05
2018-09-13T14:14:29.647Z,94.14
2018-09-13T14:17:00.855Z,93.56
2018-09-13T14:19:32.885Z,95.25
2018-09-13T14:22:09.882Z,94.06
2018-09-13T14:24:47.006Z,94.45
2018-09-13T14:27:15.652Z,95.32
2018-09-13T14:29:48.672Z,95.10
2018-09-13T14:32:22.665Z,94.96
2018-09-13T14:34:55.474Z,96.43
2018-09-13T14:37:29.697Z,96.32
2018-09-13T14:40:02.900Z,92.29
2018-09-13T14:42:34.593Z,88.80
2018-09-13T14:45:04.519Z,88.70
2018-09-13T14:47:35.987Z,88.94
2018-09-13T14:50:10.952Z,86.06
2018-09-13T14:52:41.208Z,84.16
2018-09-13T14:55:11.193Z,81.79
2018-09-13T14:57:39.808Z,82.87
2018-09-13T15:00:12.786Z,83.53
2018-09-13T15:02:44.992Z,80.81
2018-09-13T15:05:18.775Z,79.69
2018-09-13T15:07:50.439Z,77.58
2018-09-13T15:10:21.621Z,77.82
2018-09-13T15:12:54.315Z,80.00
2018-09-13T15:15:26.896Z,80.20
2018-09-13T15:17:57.316Z,79.96
2018-09-13T15:20:29.108Z,77.94
2018-09-13T15:23:03.440Z,77.46
2018-09-13T15:25:32.151Z,79.22
2018-09-13T15:28:00.738Z,80.67
2018-09-13T15:30:29.293Z,81.97
2018-09-13T15:34:01.038Z,81.73
2018-09-13T15:36:33.802Z,80.89
2018-09-13T15:39:10.748Z,80.28
2018-09-13T15:41:40.927Z,81.09
2018-09-13T15:44:12.423Z,80.83
2018-09-13T15:46:41.673Z,79.95
2018-09-13T15:49:15.206Z,78.99
2018-09-13T15:51:50.260Z,79.52
2018-09-13T15:54:20.953Z,78.26
2018-09-13T15:56:49.787Z,78.25
2018-09-13T15:59:18.849Z,79.54
2018-09-13T16:01:47.548Z,79.04
2018-09-13T16:04:19.310Z,78.22
2018-09-13T16:06:48.588Z,79.27
2018-09-13T16:09:19.285Z,79.43
2018-09-13T16:11:49.548Z,79.09
2018-09-13T16:14:18.066Z,79.89
2018-09-13T16:16:46.706Z,79.39
2018-09-13T16:19:20.346Z,80.31
2018-09-13T16:21:50.620Z,79.49
2018-09-13T16:24:26.704Z,79.26
2018-09-13T16:26:55.921Z,80.20
2018-09-13T16:29:27.437Z,79.22
2018-09-13T16:32:00.583Z,79.03
2018-09-13T16:34:29.517Z,80.08
2018-09-13T16:37:11.205Z,78.85
2018-09-13T16:39:44.864Z,78.66
2018-09-13T16:42:18.720Z,79.47
2018-09-13T16:44:53.740Z,80.37
2018-09-13T16:47:29.268Z,80.08
2018-09-13T16:49:58.744Z,80.33
2018-09-13T16:52:28.040Z,80.46
2018-09-13T16:55:02.988Z,78.80
2018-09-13T16:57:31.528Z,79.32
2018-09-13T17:00:00.048Z,78.71
2018-09-13T17:02:28.608Z,79.04
2018-09-13T17:04:57.924Z,78.62
2018-09-13T17:07:26.567Z,80.84
2018-09-13T17:09:55.092Z,80.09
2018-09-13T17:12:24.485Z,79.55
2018-09-13T17:14:53.082Z,79.70
2018-09-13T17:17:21.636Z,79.60
2018-09-13T17:19:50.236Z,79.67
2018-09-13T17:22:18.784Z,79.39
2018-09-13T17:24:47.409Z,79.52
2018-09-13T17:27:16.036Z,79.38
2018-09-13T17:29:51.128Z,79.79
2018-09-13T17:32:20.116Z,79.21
2018-09-13T17:34:48.707Z,79.83
2018-09-13T17:37:17.251Z,80.61
2018-09-13T17:39:46.053Z,79.50
2018-09-13T17:42:14.740Z,80.11
2018-09-13T17:44:43.308Z,79.64
2018-09-13T17:47:11.828Z,80.28
2018-09-13T17:49:40.381Z,80.08
2018-09-13T17:52:09.053Z,79.67
2018-09-13T17:54:37.608Z,80.38
2018-09-13T17:57:06.289Z,80.47
2018-09-13T17:59:34.844Z,80.30
2018-09-13T18:02:03.364Z,80.53
2018-09-13T18:04:31.945Z,80.76
2018-09-13T18:07:00.510Z,81.00
2018-09-13T18:09:29.077Z,81.18
2018-09-13T18:11:57.877Z,82.23
2018-09-13T18:14:26.412Z,82.53
2018-09-13T18:16:54.917Z,82.48
2018-09-13T18:19:26.220Z,82.89
2018-09-13T18:21:54.784Z,82.62
2018-09-13T18:24:23.325Z,82.42
2018-09-13T18:26:51.848Z,81.54
2018-09-13T18:29:20.406Z,82.05
2018-09-13T18:31:50.486Z,82.55
2018-09-13T18:34:19.024Z,83.34
2018-09-13T18:36:47.541Z,84.37
2018-09-13T18:39:16.091Z,83.00
2018-09-13T18:41:44.600Z,82.51
2018-09-13T18:44:13.140Z,82.35
2018-09-13T18:46:41.660Z,83.27
2018-09-13T18:49:10.203Z,83.40
2018-09-13T18:51:38.732Z,83.20
2018-09-13T18:54:07.292Z,83.42
2018-09-13T18:56:35.840Z,83.33
2018-09-13T18:59:04.657Z,83.39
2018-09-13T19:01:33.321Z,83.27
2018-09-13T19:04:01.872Z,83.83
2018-09-13T19:06:30.420Z,84.61
2018-09-13T19:08:58.967Z,84.97
2018-09-13T19:11:27.745Z,84.31
2018-09-13T19:13:56.301Z,85.12
2018-09-13T19:16:25.276Z,85.49
2018-09-13T19:18:58.833Z,86.46
2018-09-13T19:21:28.606Z,86.97
2018-09-13T19:23:58.537Z,86.74
2018-09-13T19:26:27.808Z,86.99
2018-09-13T19:28:56.317Z,86.40
2018-09-13T19:31:24.877Z,86.36
2018-09-13T19:33:54.914Z,86.37
2018-09-13T19:36:26.474Z,86.26
2018-09-13T19:38:55.751Z,85.99
2018-09-13T19:41:25.065Z,85.50
2018-09-13T19:43:54.771Z,85.98
2018-09-13T19:46:24.125Z,86.25
2018-09-13T19:48:54.169Z,86.41
2018-09-13T19:51:22.804Z,86.44
2018-09-13T19:53:56.031Z,86.03
2018-09-13T19:56:36.289Z,85.26
2018-09-13T19:59:08.296Z,86.28
2018-09-13T20:01:41.556Z,86.18
2018-09-13T20:04:10.612Z,86.82
2018-09-13T20:06:42.501Z,86.95
2018-09-13T20:09:12.500Z,86.27
2018-09-13T20:11:44.636Z,86.66
2018-09-13T20:14:22.184Z,86.51
2018-09-13T20:16:50.919Z,86.06
2018-09-13T20:19:20.493Z,86.67
2018-09-13T20:21:49.940Z,86.63
2018-09-13T20:24:25.759Z,86.69
2018-09-13T20:26:55.069Z,86.95
2018-09-13T20:29:24.821Z,86.75
2018-09-13T20:32:05.334Z,86.59
2018-09-13T20:34:40.096Z,86.74
2018-09-13T20:37:16.551Z,87.10
2018-09-13T20:39:47.544Z,86.78
2018-09-13T20:42:16.291Z,86.94
2018-09-13T20:44:49.620Z,87.23
2018-09-13T20:47:20.423Z,87.28
2018-09-13T20:49:50.929Z,87.22
2018-09-13T20:52:19.588Z,88.95
2018-09-13T20:54:53.574Z,87.79
2018-09-13T20:57:27.934Z,88.52
2018-09-13T21:00:02.681Z,88.53
2018-09-13T21:02:34.492Z,88.26
2018-09-13T21:05:03.916Z,88.18
2018-09-13T21:07:33.572Z,88.28
2018-09-13T21:10:10.475Z,88.28
2018-09-13T21:12:41.834Z,88.78
2018-09-13T21:15:14.161Z,89.14
2018-09-13T21:17:43.620Z,88.54
2018-09-13T21:20:16.232Z,87.82
2018-09-13T21:22:46.279Z,88.28
2018-09-13T21:25:17.757Z,88.37
2018-09-13T21:27:46.372Z,88.61
2018-09-13T21:30:14.907Z,89.22
2018-09-13T21:32:45.567Z,89.30
2018-09-13T21:35:15.597Z,88.01
2018-09-13T21:37:46.035Z,88.14
2018-09-13T21:40:19.627Z,88.61
2018-09-13T21:42:51.242Z,88.10
2018-09-13T21:45:22.408Z,89.29
2018-09-13T21:47:51.699Z,88.38
2018-09-13T21:50:23.957Z,88.64
2018-09-13T21:52:55.375Z,87.70
2018-09-13T21:55:28.037Z,87.70
2018-09-13T21:57:58.625Z,87.68
2018-09-13T22:00:29.447Z,86.98
2018-09-13T22:03:01.528Z,87.65
2018-09-13T22:05:31.208Z,87.04
2018-09-13T22:08:01.546Z,87.47
2018-09-13T22:10:33.756Z,87.65
2018-09-13T22:13:06.438Z,88.09
2018-09-13T22:15:38.032Z,87.50
2018-09-13T22:18:11.206Z,88.87
2018-09-13T22:20:45.637Z,87.97
2018-09-13T22:23:17.649Z,87.66
2018-09-13T22:25:46.882Z,87.99
2018-09-13T22:28:15.689Z,88.15
2018-09-13T22:30:47.900Z,88.32
2018-09-13T22:33:22.216Z,89.01
2018-09-13T22:35:55.444Z,88.46
2018-09-13T22:38:26.471Z,87.93
2018-09-13T22:40:55.947Z,87.42
2018-09-13T22:43:34.690Z,88.64
2018-09-13T22:46:05.944Z,88.86
2018-09-13T22:48:40.337Z,89.09
2018-09-13T22:51:13.359Z,89.26
2018-09-13T22:53:47.201Z,88.75
2018-09-13T22:56:17.677Z,88.46
2018-09-13T22:58:50.195Z,89.52
2018-09-13T23:01:21.124Z,90.65
2018-09-13T23:03:53.594Z,90.15
2018-09-13T23:06:22.947Z,91.17
2018-09-13T23:08:54.451Z,91.51
2018-09-13T23:11:24.748Z,90.40
2018-09-13T23:13:55.421Z,89.27
2018-09-13T23:16:27.790Z,90.32
2018-09-13T23:18:57.673Z,90.03
2018-09-13T23:21:26.835Z,90.04
2018-09-13T23:23:55.423Z,91.38
2018-09-13T23:26:25.339Z,92.93
2018-09-13T23:28:54.629Z,92.44
2018-09-13T23:31:23.152Z,91.76
2018-09-13T23:33:51.706Z,92.04
2018-09-13T23:36:26.850Z,92.97
2018-09-13T23:38:55.467Z,93.34
2018-09-13T23:41:23.988Z,93.59
2018-09-13T23:43:53.644Z,93.25
2018-09-13T23:46:22.179Z,94.19
2018-09-13T23:48:50.725Z,94.11
2018-09-13T23:51:19.240Z,92.77
2018-09-13T23:53:47.825Z,93.02
2018-09-13T23:56:16.375Z,92.41
2018-09-13T23:58:44.936Z,93.15
